Time;durP1;ratioP1;P1;durP2;ratioP2;P2;SDS_P1;SDS_P2;PMS_P1;PMS_P2;Temp;Humidity;BMP_temperature;BMP_pressure;BME280_temperature;BME280_humidity;BME280_pressure;Samples;Min_cycle;Max_cycle;Signal;HPM_P1;HPM_P2
2022/07/26 00:01:19;;;;;;;;;;;;;;;22.78;45.13;100362.91;5025212;28;7393;-79
2022/07/26 00:03:47;;;;;;;;;;;;;;;22.76;44.90;100359.44;4996113;28;7435;-80
2022/07/26 00:06:14;;;;;;;;;;;;;;;22.75;45.36;100368.16;5011968;28;7156;-80
2022/07/26 00:08:40;;;;;;;;;;;;;;;22.71;45.58;100369.88;5000432;28;6780;-80
2022/07/26 00:11:05;;;;;;;;;;;;;;;22.68;45.41;100364.69;5015482;28;7046;-80
2022/07/26 00:13:31;;;;;;;;;;;;;;;22.64;45.39;100368.16;5020755;28;7255;-79
2022/07/26 00:15:57;;;;;;;;;;;;;;;22.60;46.03;100364.72;4998665;28;7255;-79
2022/07/26 00:18:23;;;;;;;;;;;;;;;22.57;46.04;100369.06;5010909;28;6941;-79
2022/07/26 00:20:50;;;;;;;;;;;;;;;22.54;46.19;100369.06;5017553;28;6959;-79
2022/07/26 00:26:00;;;;;;;;;;;;;;;22.44;46.71;100355.13;4994514;28;6796;-79
2022/07/26 00:28:26;;;;;;;;;;;;;;;22.42;46.65;100359.50;5018310;28;6815;-79
2022/07/26 00:30:52;;;;;;;;;;;;;;;22.39;46.88;100359.47;4994806;28;6926;-79
2022/07/26 00:33:17;;;;;;;;;;;;;;;22.38;46.82;100358.63;5017376;28;6862;-79
2022/07/26 00:35:43;;;;;;;;;;;;;;;22.36;46.89;100365.59;5008157;28;8544;-79
2022/07/26 00:38:09;;;;;;;;;;;;;;;22.33;46.81;100358.63;4992748;28;6896;-79
2022/07/26 00:40:34;;;;;;;;;;;;;;;22.28;47.00;100357.75;5027192;28;6801;-79
2022/07/26 00:43:00;;;;;;;;;;;;;;;22.25;47.28;100359.50;5004304;28;7204;-80
2022/07/26 00:45:26;;;;;;;;;;;;;;;22.21;47.08;100358.63;5011357;28;6982;-79
2022/07/26 00:47:52;;;;;;;;;;;;;;;22.19;47.30;100369.09;5048176;28;7124;-79
2022/07/26 00:50:19;;;;;;;;;;;;;;;22.15;47.40;100364.72;4998580;28;6775;-80
2022/07/26 00:52:48;;;;;;;;;;;;;;;22.13;47.51;100365.63;5016784;28;6964;-80
2022/07/26 00:55:16;;;;;;;;;;;;;;;22.08;47.73;100373.44;5020163;28;6965;-79
2022/07/26 00:57:43;;;;;;;;;;;;;;;22.06;47.84;100362.13;5044396;28;6849;-79
2022/07/26 01:00:17;;;;;;;;;;;;;;;22.02;47.80;100363.88;5015256;28;8443;-79
2022/07/26 01:02:43;;;;;;;;;;;;;;;21.98;48.22;100364.72;5022948;28;11830;-80
2022/07/26 01:05:09;;;;;;;;;;;;;;;21.95;48.25;100364.75;5015894;28;7195;-80
2022/07/26 01:07:39;;;;;;;;;;;;;;;21.91;48.50;100363.88;5014340;28;7157;-80
2022/07/26 01:10:11;;;;;;;;;;;;;;;21.89;48.16;100359.50;5010334;28;7025;-79
2022/07/26 01:12:39;;;;;;;;;;;;;;;21.85;48.40;100356.03;5032626;28;7423;-79
2022/07/26 01:15:05;;;;;;;;;;;;;;;21.81;48.31;100363.84;4994209;28;7803;-79
2022/07/26 01:17:31;;;;;;;;;;;;;;;21.79;48.37;100366.47;5026262;28;7302;-79
2022/07/26 01:19:57;;;;;;;;;;;;;;;21.73;48.85;100359.50;4997729;28;7174;-79
2022/07/26 01:22:22;;;;;;;;;;;;;;;21.71;48.95;100360.38;4976639;28;6967;-79
2022/07/26 01:24:48;;;;;;;;;;;;;;;21.68;48.97;100366.44;5018955;28;6962;-79
2022/07/26 01:27:14;;;;;;;;;;;;;;;21.65;49.28;100363.81;4993795;28;6784;-79
2022/07/26 01:29:40;;;;;;;;;;;;;;;21.61;49.64;100359.44;4997686;28;7413;-79
2022/07/26 01:32:07;;;;;;;;;;;;;;;21.58;49.31;100364.66;5007120;28;7321;-79
2022/07/26 01:34:32;;;;;;;;;;;;;;;21.55;49.37;100354.22;5008250;28;6992;-78
2022/07/26 01:36:58;;;;;;;;;;;;;;;21.51;49.73;100354.22;4998122;28;6991;-79
2022/07/26 01:39:24;;;;;;;;;;;;;;;21.51;49.57;100362.03;4998423;28;6950;-79
2022/07/26 01:41:49;;;;;;;;;;;;;;;21.49;49.77;100362.91;5024885;28;6954;-79
2022/07/26 01:44:15;;;;;;;;;;;;;;;21.45;50.02;100351.59;4997466;28;7205;-79
2022/07/26 01:46:41;;;;;;;;;;;;;;;21.44;49.61;100357.69;5011710;28;7058;-79
2022/07/26 01:49:07;;;;;;;;;;;;;;;21.44;49.92;100359.41;5029955;28;7003;-78
2022/07/26 01:51:34;;;;;;;;;;;;;;;21.42;49.81;100359.41;4993054;28;6792;-78
2022/07/26 01:54:01;;;;;;;;;;;;;;;21.42;49.73;100363.75;4994211;28;7277;-78
2022/07/26 01:56:26;;;;;;;;;;;;;;;21.41;49.95;100362.88;4998893;28;7129;-78
2022/07/26 01:58:52;;;;;;;;;;;;;;;21.41;50.17;100367.25;5006415;28;7227;-78
2022/07/26 02:01:18;;;;;;;;;;;;;;;21.41;50.38;100368.09;4994343;28;6780;-79
2022/07/26 02:03:43;;;;;;;;;;;;;;;21.41;49.82;100369.84;4998041;28;7161;-78
2022/07/26 02:06:09;;;;;;;;;;;;;;;21.43;50.26;100371.56;4992165;28;6946;-78
2022/07/26 02:08:35;;;;;;;;;;;;;;;21.43;50.40;100370.72;4989729;28;6963;-78
2022/07/26 02:11:01;;;;;;;;;;;;;;;21.42;50.52;100374.19;5008525;28;8051;-79
2022/07/26 02:13:37;;;;;;;;;;;;;;;21.40;50.51;100376.78;5042595;28;7316;-79
2022/07/26 02:16:07;;;;;;;;;;;;;;;21.39;50.59;100374.16;5027143;28;6808;-79
2022/07/26 02:18:36;;;;;;;;;;;;;;;21.40;50.34;100381.13;4990783;28;6988;-78
2022/07/26 02:21:04;;;;;;;;;;;;;;;21.40;50.91;100368.97;4998069;28;6835;-79
2022/07/26 02:23:31;;;;;;;;;;;;;;;21.39;50.56;100375.03;5022163;28;7331;-79
2022/07/26 02:25:57;;;;;;;;;;;;;;;21.37;50.87;100372.41;5001789;28;7847;-79
2022/07/26 02:28:22;;;;;;;;;;;;;;;21.36;50.76;100369.84;4995387;28;8267;-78
2022/07/26 02:30:49;;;;;;;;;;;;;;;21.34;50.70;100381.97;4996308;28;7908;-79
2022/07/26 02:33:16;;;;;;;;;;;;;;;21.33;50.61;100380.22;4991553;28;7195;-78
2022/07/26 02:35:44;;;;;;;;;;;;;;;21.29;51.04;100376.72;5023751;28;7035;-79
2022/07/26 02:38:14;;;;;;;;;;;;;;;21.26;51.27;100368.91;5009531;28;7052;-79
2022/07/26 02:40:42;;;;;;;;;;;;;;;21.25;51.21;100376.75;5044406;28;7049;-79
2022/07/26 02:43:09;;;;;;;;;;;;;;;21.22;50.84;100381.06;4994105;28;7546;-79
2022/07/26 02:45:35;;;;;;;;;;;;;;;21.20;51.31;100379.34;4995025;28;6983;-78
2022/07/26 02:48:02;;;;;;;;;;;;;;;21.18;51.44;100376.72;5009825;28;7005;-78
2022/07/26 02:50:28;;;;;;;;;;;;;;;21.16;51.94;100381.06;5030204;28;6852;-78
2022/07/26 02:52:55;;;;;;;;;;;;;;;21.15;51.96;100381.94;4981862;28;7237;-78
2022/07/26 02:55:25;;;;;;;;;;;;;;;21.13;51.84;100383.63;5004495;28;7016;-78
2022/07/26 02:57:51;;;;;;;;;;;;;;;21.13;52.16;100381.03;5025423;28;7182;-79
2022/07/26 03:00:22;;;;;;;;;;;;;;;21.16;52.36;100395.81;5008878;28;8398;-78
2022/07/26 03:02:49;;;;;;;;;;;;;;;21.19;52.03;100399.31;5023015;28;6972;-79
2022/07/26 03:05:15;;;;;;;;;;;;;;;21.27;52.51;100398.47;5014975;28;7026;-79
2022/07/26 03:07:41;;;;;;;;;;;;;;;21.34;52.51;100401.09;5000659;28;6819;-79
2022/07/26 03:10:07;;;;;;;;;;;;;;;21.45;52.64;100392.44;5024569;28;8588;-78
2022/07/26 03:12:33;;;;;;;;;;;;;;;21.55;52.69;100393.34;5026127;28;7269;-79
2022/07/26 03:14:59;;;;;;;;;;;;;;;21.63;52.46;100389.00;4992247;28;7218;-78
2022/07/26 03:17:25;;;;;;;;;;;;;;;21.71;52.29;100402.97;5027648;28;6830;-78
2022/07/26 03:19:50;;;;;;;;;;;;;;;21.78;52.26;100396.03;5027031;28;7855;-79
2022/07/26 03:22:16;;;;;;;;;;;;;;;21.83;52.07;100403.88;5027514;28;8471;-79
2022/07/26 03:24:42;;;;;;;;;;;;;;;21.89;51.79;100401.25;5000589;28;6839;-79
2022/07/26 03:27:07;;;;;;;;;;;;;;;21.93;51.93;100408.22;4992064;28;6843;-79
2022/07/26 03:29:33;;;;;;;;;;;;;;;21.97;52.04;100407.34;4993343;28;8672;-78
2022/07/26 03:31:59;;;;;;;;;;;;;;;22.01;52.09;100401.25;4991866;28;7304;-78
2022/07/26 03:34:24;;;;;;;;;;;;;;;22.05;51.84;100400.41;5014183;28;8571;-79
2022/07/26 03:36:50;;;;;;;;;;;;;;;22.10;51.84;100404.75;4995534;28;6975;-79
2022/07/26 03:39:16;;;;;;;;;;;;;;;22.13;52.04;100405.63;5044398;28;8737;-79
2022/07/26 03:41:41;;;;;;;;;;;;;;;22.18;51.81;100410.84;4997520;28;6989;-79
2022/07/26 03:44:07;;;;;;;;;;;;;;;22.20;52.13;100409.09;4986552;28;7146;-79
2022/07/26 03:46:33;;;;;;;;;;;;;;;22.23;52.03;100411.72;5011204;28;6946;-78
2022/07/26 03:48:58;;;;;;;;;;;;;;;22.26;51.83;100411.72;5002781;28;6983;-77
2022/07/26 03:51:24;;;;;;;;;;;;;;;22.30;51.63;100413.44;5012228;28;7169;-78
2022/07/26 03:53:50;;;;;;;;;;;;;;;22.33;52.15;100421.28;4990947;28;7320;-77
2022/07/26 03:56:27;;;;;;;;;;;;;;;22.37;51.74;100421.28;5000908;28;7197;-78
2022/07/26 03:59:07;;;;;;;;;;;;;;;22.40;51.94;100426.47;5028333;28;7211;-78
2022/07/26 04:01:33;;;;;;;;;;;;;;;22.40;51.91;100422.16;5022606;28;7254;-78
2022/07/26 04:04:00;;;;;;;;;;;;;;;22.43;51.65;100429.97;4993170;28;6983;-78
2022/07/26 04:06:26;;;;;;;;;;;;;;;22.44;51.47;100423.03;5009667;28;6840;-78
2022/07/26 04:08:52;;;;;;;;;;;;;;;22.44;51.48;100426.47;4993869;28;8510;-79
2022/07/26 04:11:18;;;;;;;;;;;;;;;22.44;51.41;100429.09;4997902;28;6951;-79
2022/07/26 04:13:43;;;;;;;;;;;;;;;22.44;51.74;100436.06;5026730;28;8398;-78
2022/07/26 04:16:09;;;;;;;;;;;;;;;22.44;51.94;100436.06;4998020;28;7465;-77
2022/07/26 04:18:35;;;;;;;;;;;;;;;22.45;51.79;100437.81;4996352;28;7685;-77
2022/07/26 04:21:01;;;;;;;;;;;;;;;22.45;51.85;100443.03;4996213;28;6910;-77
2022/07/26 04:23:27;;;;;;;;;;;;;;;22.45;51.97;100440.44;5026418;28;6803;-77
2022/07/26 04:25:52;;;;;;;;;;;;;;;22.46;51.87;100439.56;5026329;28;7166;-77
2022/07/26 04:28:18;;;;;;;;;;;;;;;22.48;52.05;100440.41;4994155;28;7257;-77
2022/07/26 04:30:44;;;;;;;;;;;;;;;22.46;51.89;100431.72;4994128;28;7832;-77
2022/07/26 04:33:10;;;;;;;;;;;;;;;22.45;51.67;100432.59;4996228;28;7135;-78
2022/07/26 04:35:35;;;;;;;;;;;;;;;22.45;52.06;100443.91;5027748;28;7472;-78
2022/07/26 04:38:02;;;;;;;;;;;;;;;22.45;52.28;100445.66;4992874;28;7334;-77
2022/07/26 04:40:32;;;;;;;;;;;;;;;22.46;52.16;100444.78;5021519;28;6807;-77
2022/07/26 04:43:00;;;;;;;;;;;;;;;22.47;52.25;100450.00;4983470;28;8447;-78
2022/07/26 04:45:26;;;;;;;;;;;;;;;22.48;52.22;100448.25;5024666;28;7161;-77
2022/07/26 04:47:52;;;;;;;;;;;;;;;22.50;52.04;100448.28;5001378;28;7202;-78
2022/07/26 04:50:20;;;;;;;;;;;;;;;22.50;51.73;100451.75;5012833;28;6942;-78
2022/07/26 04:52:46;;;;;;;;;;;;;;;22.52;52.23;100451.75;5017047;28;8184;-77
2022/07/26 04:55:12;;;;;;;;;;;;;;;22.54;52.10;100450.00;4996123;28;6859;-76
2022/07/26 04:57:38;;;;;;;;;;;;;;;22.54;51.71;100450.00;5016724;28;6941;-76
2022/07/26 05:00:09;;;;;;;;;;;;;;;22.49;52.23;100455.25;5010992;28;6991;-76
2022/07/26 05:02:35;;;;;;;;;;;;;;;22.44;52.30;100455.22;5027935;28;6972;-76
2022/07/26 05:05:01;;;;;;;;;;;;;;;22.38;52.49;100454.34;5016939;28;7161;-76
2022/07/26 05:07:27;;;;;;;;;;;;;;;22.30;53.07;100455.22;5017600;28;7231;-76
2022/07/26 05:09:52;;;;;;;;;;;;;;;22.20;52.82;100456.97;5017545;28;6775;-75
2022/07/26 05:12:18;;;;;;;;;;;;;;;22.10;52.99;100456.94;5013893;28;6848;-75
2022/07/26 05:14:44;;;;;;;;;;;;;;;21.99;53.59;100463.00;4997692;28;6836;-75
2022/07/26 05:17:10;;;;;;;;;;;;;;;21.96;53.81;100459.53;5000526;28;6780;-75
2022/07/26 05:19:36;;;;;;;;;;;;;;;21.92;54.32;100464.75;5032624;28;7231;-75
2022/07/26 05:22:02;;;;;;;;;;;;;;;21.90;54.89;100468.22;5000675;28;7393;-75
2022/07/26 05:24:27;;;;;;;;;;;;;;;21.90;55.05;100463.00;5003672;28;6776;-76
2022/07/26 05:26:53;;;;;;;;;;;;;;;21.91;55.37;100467.34;4995720;28;6775;-76
2022/07/26 05:29:19;;;;;;;;;;;;;;;21.92;55.43;100463.84;4998491;28;6776;-77
2022/07/26 05:31:45;;;;;;;;;;;;;;;21.96;55.25;100460.41;4993509;28;6795;-77
2022/07/26 05:34:10;;;;;;;;;;;;;;;22.01;55.36;100463.88;4999077;28;6799;-77
2022/07/26 05:36:36;;;;;;;;;;;;;;;22.09;55.61;100455.19;5027822;28;7303;-77
2022/07/26 05:39:02;;;;;;;;;;;;;;;22.13;55.60;100451.75;5030666;28;7293;-77
2022/07/26 05:41:27;;;;;;;;;;;;;;;22.22;55.34;100454.34;5016679;28;9832;-77
2022/07/26 05:43:53;;;;;;;;;;;;;;;22.28;55.14;100451.72;5034287;28;7332;-77
2022/07/26 05:46:19;;;;;;;;;;;;;;;22.34;55.53;100456.09;4998806;28;6772;-77
2022/07/26 05:48:44;;;;;;;;;;;;;;;22.38;55.15;100456.94;5016498;28;10575;-77
2022/07/26 05:51:11;;;;;;;;;;;;;;;22.39;55.40;100463.91;4997088;28;6800;-77
2022/07/26 05:53:37;;;;;;;;;;;;;;;22.41;55.11;100468.28;4990045;28;7030;-78
2022/07/26 05:56:04;;;;;;;;;;;;;;;22.44;55.36;100462.19;4998121;28;7233;-77
2022/07/26 05:58:29;;;;;;;;;;;;;;;22.47;55.40;100460.44;5003713;28;6793;-77
2022/07/26 06:00:55;;;;;;;;;;;;;;;22.52;54.93;100465.69;5011044;28;8216;-77
2022/07/26 06:03:21;;;;;;;;;;;;;;;22.56;55.08;100466.56;5043742;28;7260;-77
2022/07/26 06:06:05;;;;;;;;;;;;;;;22.61;54.79;100476.16;4996929;28;6776;-77
2022/07/26 06:08:31;;;;;;;;;;;;;;;22.64;54.87;100467.41;5022357;28;7304;-77
2022/07/26 06:10:57;;;;;;;;;;;;;;;22.68;54.72;100470.91;5029730;28;7622;-77
2022/07/26 06:13:22;;;;;;;;;;;;;;;22.69;54.61;100472.63;5018165;28;7290;-76
2022/07/26 06:15:49;;;;;;;;;;;;;;;22.71;54.63;100470.91;5025850;28;6771;-77
2022/07/26 06:18:15;;;;;;;;;;;;;;;22.72;55.23;100475.25;5014909;28;7242;-77
2022/07/26 06:20:43;;;;;;;;;;;;;;;22.74;55.13;100478.75;4994511;28;6775;-77
2022/07/26 06:23:09;;;;;;;;;;;;;;;22.77;54.82;100480.47;5026136;28;6796;-77
2022/07/26 06:25:36;;;;;;;;;;;;;;;22.78;54.69;100483.06;4984965;28;7396;-77
2022/07/26 06:28:04;;;;;;;;;;;;;;;22.77;54.56;100486.56;4987386;28;6900;-77
2022/07/26 06:30:30;;;;;;;;;;;;;;;22.74;54.89;100491.81;5011854;28;8470;-77
2022/07/26 06:32:56;;;;;;;;;;;;;;;22.72;55.02;100496.16;4998836;28;6994;-77
2022/07/26 06:35:23;;;;;;;;;;;;;;;22.73;55.22;100497.91;5016234;28;6969;-77
2022/07/26 06:37:49;;;;;;;;;;;;;;;22.78;55.46;100503.97;4999702;28;6927;-77
2022/07/26 06:40:15;;;;;;;;;;;;;;;22.85;55.21;100500.50;5031235;28;6999;-77
2022/07/26 06:42:41;;;;;;;;;;;;;;;22.91;55.23;100509.22;4981619;28;8703;-76
2022/07/26 06:45:07;;;;;;;;;;;;;;;22.96;55.18;100510.06;4981998;28;7050;-77
2022/07/26 06:47:34;;;;;;;;;;;;;;;23.00;55.15;100517.03;5013012;28;7226;-77
2022/07/26 06:50:00;;;;;;;;;;;;;;;23.06;54.92;100519.63;5026609;28;7126;-77
2022/07/26 06:52:26;;;;;;;;;;;;;;;23.10;54.83;100510.03;5013581;28;7273;-77
2022/07/26 06:54:51;;;;;;;;;;;;;;;23.14;54.47;100525.69;4998802;28;6784;-78
2022/07/26 06:57:17;;;;;;;;;;;;;;;23.21;54.32;100523.09;5005053;28;6985;-77
2022/07/26 06:59:43;;;;;;;;;;;;;;;23.25;54.39;100525.69;4997716;28;6856;-77
2022/07/26 07:02:08;;;;;;;;;;;;;;;23.33;54.24;100527.44;5011007;28;7053;-77
2022/07/26 07:04:34;;;;;;;;;;;;;;;23.40;54.32;100523.91;4991541;28;6975;-77
2022/07/26 07:07:07;;;;;;;;;;;;;;;23.50;54.68;100522.16;5003680;28;6836;-77
2022/07/26 07:09:34;;;;;;;;;;;;;;;23.57;54.19;100535.19;5011843;28;8335;-77
2022/07/26 07:12:02;;;;;;;;;;;;;;;23.64;54.28;100528.19;5031476;28;6823;-77
2022/07/26 07:14:28;;;;;;;;;;;;;;;23.75;53.67;100540.34;5020519;28;7138;-77
2022/07/26 07:16:55;;;;;;;;;;;;;;;23.86;53.62;100535.97;5021111;28;7022;-77
2022/07/26 07:19:21;;;;;;;;;;;;;;;24.00;53.65;100538.50;4983895;28;6976;-77
2022/07/26 07:21:47;;;;;;;;;;;;;;;24.17;53.81;100533.19;4998331;28;6800;-78
2022/07/26 07:24:13;;;;;;;;;;;;;;;24.35;53.04;100531.34;4995473;28;6926;-77
2022/07/26 07:26:39;;;;;;;;;;;;;;;24.49;53.02;100537.34;5001695;28;7596;-77
2022/07/26 07:29:05;;;;;;;;;;;;;;;24.68;53.03;100539.81;5001538;28;6975;-77
2022/07/26 07:31:30;;;;;;;;;;;;;;;24.92;52.43;100532.66;5003973;28;7211;-77
2022/07/26 07:33:56;;;;;;;;;;;;;;;25.12;52.03;100542.06;5031444;28;6771;-77
2022/07/26 07:36:22;;;;;;;;;;;;;;;25.29;51.30;100545.38;5015012;28;7195;-77
2022/07/26 07:38:48;;;;;;;;;;;;;;;25.47;51.10;100546.94;4994797;28;6776;-77
2022/07/26 07:41:14;;;;;;;;;;;;;;;25.65;50.62;100547.63;5003031;28;6926;-77
2022/07/26 07:43:39;;;;;;;;;;;;;;;25.83;50.40;100541.25;5018076;28;7103;-77
2022/07/26 07:46:05;;;;;;;;;;;;;;;25.91;49.82;100549.91;5003545;28;7176;-78
2022/07/26 07:48:31;;;;;;;;;;;;;;;25.91;49.39;100543.78;4999652;28;7092;-77
2022/07/26 07:50:56;;;;;;;;;;;;;;;25.88;48.78;100551.72;5031153;28;6784;-77
2022/07/26 07:53:22;;;;;;;;;;;;;;;25.81;48.62;100548.31;4997796;28;7386;-77
2022/07/26 07:55:48;;;;;;;;;;;;;;;25.79;48.85;100548.31;5002831;28;7028;-77
2022/07/26 07:58:19;;;;;;;;;;;;;;;25.78;48.78;100546.56;5018987;28;7133;-77
2022/07/26 08:00:46;;;;;;;;;;;;;;;25.84;49.07;100555.28;5031944;28;6860;-77
2022/07/26 08:03:11;;;;;;;;;;;;;;;25.89;49.21;100556.94;5002736;28;7218;-77
2022/07/26 08:05:37;;;;;;;;;;;;;;;25.98;48.71;100557.69;4997472;28;6771;-77
2022/07/26 08:08:03;;;;;;;;;;;;;;;26.01;48.73;100555.03;4999505;28;6809;-77
2022/07/26 08:10:30;;;;;;;;;;;;;;;25.99;48.11;100555.06;4998691;28;6792;-78
2022/07/26 08:12:55;;;;;;;;;;;;;;;26.01;48.31;100562.91;5007432;28;8360;-77
2022/07/26 08:15:22;;;;;;;;;;;;;;;26.01;48.45;100555.03;4998643;28;6787;-77
2022/07/26 08:17:49;;;;;;;;;;;;;;;26.04;48.21;100557.63;5000324;28;6949;-77
2022/07/26 08:20:15;;;;;;;;;;;;;;;26.09;48.23;100561.06;4997835;28;7121;-77
2022/07/26 08:22:41;;;;;;;;;;;;;;;26.18;48.01;100544.28;4998355;28;6852;-77
2022/07/26 08:25:08;;;;;;;;;;;;;;;26.31;47.87;100553.75;5004545;28;6780;-77
2022/07/26 08:27:33;;;;;;;;;;;;;;;26.41;47.81;100551.84;4998960;28;7828;-77
2022/07/26 08:29:59;;;;;;;;;;;;;;;26.56;47.69;100549.88;5003180;28;7751;-77
2022/07/26 08:32:25;;;;;;;;;;;;;;;26.69;47.59;100556.66;5000000;28;6828;-77
2022/07/26 08:34:50;;;;;;;;;;;;;;;26.83;47.30;100555.56;4984910;28;7228;-77
2022/07/26 08:37:16;;;;;;;;;;;;;;;26.99;47.12;100557.06;4988648;28;8762;-77
2022/07/26 08:39:41;;;;;;;;;;;;;;;27.16;46.45;100555.88;5000605;28;8338;-77
2022/07/26 08:42:16;;;;;;;;;;;;;;;27.36;46.18;100562.53;4996529;28;7605;-77
2022/07/26 08:44:46;;;;;;;;;;;;;;;27.70;46.27;100562.75;4998404;28;7216;-78
2022/07/26 08:47:15;;;;;;;;;;;;;;;28.04;45.76;100566.41;4979955;28;7141;-77
2022/07/26 08:49:42;;;;;;;;;;;;;;;28.40;45.12;100560.34;4997750;28;8600;-77
2022/07/26 08:52:10;;;;;;;;;;;;;;;28.66;44.17;100557.06;5001443;28;7387;-78
2022/07/26 08:54:40;;;;;;;;;;;;;;;28.88;43.76;100553.06;4988278;28;8743;-78
2022/07/26 08:57:06;;;;;;;;;;;;;;;29.34;43.92;100550.94;5033081;28;6986;-77
2022/07/26 08:59:32;;;;;;;;;;;;;;;29.86;41.82;100542.47;4996576;28;7278;-77
2022/07/26 09:02:06;;;;;;;;;;;;;;;30.08;41.08;100547.94;4999855;28;6824;-77
2022/07/26 09:04:37;;;;;;;;;;;;;;;30.28;40.47;100549.97;5000912;28;6816;-78
2022/07/26 09:07:08;;;;;;;;;;;;;;;30.84;40.95;100548.16;5019441;28;8414;-78
2022/07/26 09:10:10;;;;;;;;;;;;;;;31.60;39.56;100547.25;5030901;28;6979;-77
2022/07/26 09:12:37;;;;;;;;;;;;;;;32.49;37.73;100544.69;5000593;28;6867;-78
2022/07/26 09:15:07;;;;;;;;;;;;;;;33.06;36.52;100535.22;5032514;28;7020;-77
2022/07/26 09:17:43;;;;;;;;;;;;;;;33.48;35.48;100530.72;4999691;28;7250;-78
2022/07/26 09:20:19;;;;;;;;;;;;;;;33.51;34.44;100538.53;5015726;28;7347;-78
2022/07/26 09:23:08;;;;;;;;;;;;;;;33.25;34.64;100546.75;4997486;28;8229;-78
2022/07/26 09:25:44;;;;;;;;;;;;;;;33.21;34.46;100541.63;4985820;28;7010;-78
2022/07/26 09:28:30;;;;;;;;;;;;;;;33.28;34.56;100551.06;5028914;28;6803;-78
2022/07/26 09:31:00;;;;;;;;;;;;;;;33.58;33.96;100536.47;5000639;28;6900;-77
2022/07/26 09:33:46;;;;;;;;;;;;;;;33.68;33.61;100537.78;4998872;28;6856;-78
2022/07/26 09:36:12;;;;;;;;;;;;;;;33.47;32.95;100547.59;5001453;28;7125;-78
2022/07/26 09:38:43;;;;;;;;;;;;;;;33.04;33.14;100545.94;4998300;28;6780;-78
2022/07/26 09:41:23;;;;;;;;;;;;;;;32.57;33.73;100546.16;5014889;28;8671;-78
2022/07/26 09:43:53;;;;;;;;;;;;;;;32.61;34.36;100539.78;5009889;28;7512;-78
2022/07/26 09:46:20;;;;;;;;;;;;;;;33.10;33.54;100545.63;5026666;28;7185;-78
2022/07/26 09:48:46;;;;;;;;;;;;;;;33.38;33.20;100547.03;4999897;28;7018;-78
2022/07/26 09:51:13;;;;;;;;;;;;;;;33.24;32.70;100544.16;4994016;28;6796;-78
2022/07/26 09:53:46;;;;;;;;;;;;;;;32.85;32.88;100544.97;5015529;28;6831;-78
2022/07/26 09:56:13;;;;;;;;;;;;;;;32.45;33.00;100550.19;5001621;28;7074;-78
2022/07/26 09:58:39;;;;;;;;;;;;;;;32.20;33.85;100556.44;4981889;28;6991;-78
2022/07/26 10:01:06;;;;;;;;;;;;;;;32.41;34.19;100546.78;5043691;28;6984;-78
2022/07/26 10:03:34;;;;;;;;;;;;;;;32.84;33.14;100549.41;4995514;28;6784;-78
2022/07/26 10:06:02;;;;;;;;;;;;;;;32.93;32.43;100556.13;5040043;28;7001;-77
2022/07/26 10:08:29;;;;;;;;;;;;;;;33.02;32.70;100555.72;4997007;28;6799;-77
2022/07/26 10:11:05;;;;;;;;;;;;;;;32.95;32.11;100549.81;5030038;28;7096;-77
2022/07/26 10:13:31;;;;;;;;;;;;;;;32.69;32.28;100554.47;5028379;28;7102;-77
2022/07/26 10:15:57;;;;;;;;;;;;;;;32.53;32.56;100570.13;5045156;28;7211;-77
2022/07/26 10:18:35;;;;;;;;;;;;;;;32.65;32.48;100578.53;5003256;28;6776;-78
2022/07/26 10:21:30;;;;;;;;;;;;;;;32.52;31.82;100579.03;5027483;28;6989;-78
2022/07/26 10:23:59;;;;;;;;;;;;;;;32.00;32.14;100577.53;5002685;28;6981;-78
2022/07/26 10:26:31;;;;;;;;;;;;;;;31.65;33.18;100579.72;5012390;28;6971;-78
2022/07/26 10:29:15;;;;;;;;;;;;;;;31.81;32.92;100572.06;4992258;28;6780;-78
2022/07/26 10:32:04;;;;;;;;;;;;;;;32.12;32.54;100570.00;5024158;28;6979;-78
2022/07/26 10:34:34;;;;;;;;;;;;;;;32.33;32.22;100572.72;4996753;28;6842;-78
2022/07/26 10:37:05;;;;;;;;;;;;;;;32.43;32.42;100579.41;4993204;28;7960;-78
2022/07/26 10:39:30;;;;;;;;;;;;;;;32.81;32.52;100579.59;5027063;28;6954;-77
2022/07/26 10:42:10;;;;;;;;;;;;;;;33.24;31.99;100573.38;5024736;28;7907;-78
2022/07/26 10:44:43;;;;;;;;;;;;;;;33.52;31.46;100575.66;4978872;28;7201;-77
2022/07/26 10:47:19;;;;;;;;;;;;;;;33.24;30.49;100581.34;5028839;28;6820;-77
2022/07/26 10:49:58;;;;;;;;;;;;;;;32.54;31.08;100593.06;5026080;28;7192;-78
2022/07/26 10:52:30;;;;;;;;;;;;;;;31.86;31.47;100601.91;5025165;28;6779;-78
2022/07/26 10:54:56;;;;;;;;;;;;;;;31.20;32.02;100609.59;5008005;28;7002;-78
2022/07/26 10:57:36;;;;;;;;;;;;;;;30.52;32.91;100620.59;4995406;28;6764;-78
2022/07/26 11:00:11;;;;;;;;;;;;;;;29.61;35.45;100615.34;4997585;28;7495;-75
2022/07/26 11:02:38;;;;;;;;;;;;;;;28.72;37.28;100629.88;4996905;28;6852;-76
2022/07/26 11:05:13;;;;;;;;;;;;;;;27.92;38.11;100632.53;4994724;28;7357;-75
2022/07/26 11:07:50;;;;;;;;;;;;;;;27.25;40.08;100624.13;4996299;28;6990;-75
2022/07/26 11:10:32;;;;;;;;;;;;;;;26.82;41.36;100624.81;5022802;28;6963;-76
2022/07/26 11:13:24;;;;;;;;;;;;;;;26.47;42.84;100627.09;5022371;28;7230;-76
2022/07/26 11:15:59;;;;;;;;;;;;;;;26.34;43.41;100626.38;5021714;28;6812;-76
2022/07/26 11:18:31;;;;;;;;;;;;;;;26.35;44.49;100625.50;4989911;28;6867;-76
2022/07/26 11:21:09;;;;;;;;;;;;;;;26.42;45.22;100632.41;5008305;28;7213;-77
2022/07/26 11:23:38;;;;;;;;;;;;;;;26.53;45.37;100631.38;5037729;28;7315;-77
2022/07/26 11:26:09;;;;;;;;;;;;;;;26.66;45.84;100625.06;4984605;28;7361;-77
2022/07/26 11:28:48;;;;;;;;;;;;;;;26.86;45.40;100621.25;5029374;28;7245;-77
2022/07/26 11:31:15;;;;;;;;;;;;;;;27.05;45.19;100626.22;4994877;28;6962;-78
2022/07/26 11:33:47;;;;;;;;;;;;;;;27.36;45.13;100620.41;5000235;28;7856;-78
2022/07/26 11:36:14;;;;;;;;;;;;;;;27.70;44.56;100623.31;5010210;28;8475;-78
2022/07/26 11:38:51;;;;;;;;;;;;;;;28.04;43.62;100623.47;5026536;28;6985;-78
2022/07/26 11:41:27;;;;;;;;;;;;;;;28.26;42.63;100613.38;4996606;28;8142;-77
2022/07/26 11:43:55;;;;;;;;;;;;;;;28.34;42.13;100616.72;5024672;28;6965;-78
2022/07/26 11:46:30;;;;;;;;;;;;;;;28.44;41.98;100620.00;4993612;28;7034;-78
2022/07/26 11:48:55;;;;;;;;;;;;;;;28.58;42.33;100611.75;5008957;28;8396;-78
2022/07/26 11:51:24;;;;;;;;;;;;;;;28.89;42.20;100611.06;5023125;28;7283;-78
2022/07/26 11:53:58;;;;;;;;;;;;;;;29.32;41.84;100610.81;5014466;28;9060;-79
2022/07/26 11:56:27;;;;;;;;;;;;;;;29.71;40.61;100609.81;4995598;28;7175;-79
2022/07/26 11:58:56;;;;;;;;;;;;;;;30.06;40.12;100605.25;5028538;28;6878;-79
2022/07/26 12:01:26;;;;;;;;;;;;;;;30.36;39.03;100605.22;5009435;28;7244;-79
2022/07/26 12:03:54;;;;;;;;;;;;;;;30.61;38.92;100605.31;5000933;28;6788;-78
2022/07/26 12:06:24;;;;;;;;;;;;;;;31.17;38.88;100603.44;4997655;28;6870;-79
2022/07/26 12:08:57;;;;;;;;;;;;;;;31.92;37.79;100605.22;5000377;28;6801;-79
2022/07/26 12:11:40;;;;;;;;;;;;;;;32.44;36.80;100604.13;5012387;28;7174;-80
2022/07/26 12:14:06;;;;;;;;;;;;;;;33.25;35.84;100577.75;5001775;28;7396;-79
2022/07/26 12:16:44;;;;;;;;;;;;;;;34.09;34.17;100578.41;4999820;28;7180;-79
2022/07/26 12:19:30;;;;;;;;;;;;;;;34.64;31.99;100577.50;5000697;28;7039;-80
2022/07/26 12:22:08;;;;;;;;;;;;;;;34.51;31.76;100590.53;4984044;28;7249;-80
2022/07/26 12:24:45;;;;;;;;;;;;;;;34.08;31.54;100588.19;5024757;28;6992;-80
2022/07/26 12:27:29;;;;;;;;;;;;;;;33.66;31.90;100582.16;5007467;28;9489;-80
2022/07/26 12:30:15;;;;;;;;;;;;;;;33.43;32.31;100572.56;5014938;28;7011;-79
2022/07/26 12:32:43;;;;;;;;;;;;;;;33.29;32.44;100576.66;5030198;28;12490;-80
2022/07/26 12:35:16;;;;;;;;;;;;;;;33.18;32.11;100570.97;5007229;28;7237;-80
2022/07/26 12:37:44;;;;;;;;;;;;;;;32.83;31.87;100576.88;5003983;28;7235;-79
2022/07/26 12:40:16;;;;;;;;;;;;;;;32.38;32.13;100590.19;5030350;28;8425;-79
2022/07/26 12:42:50;;;;;;;;;;;;;;;31.94;32.91;100583.06;5003877;28;7200;-79
2022/07/26 12:45:20;;;;;;;;;;;;;;;31.56;33.22;100580.06;5033419;28;6989;-80
2022/07/26 12:47:48;;;;;;;;;;;;;;;31.20;32.93;100573.38;5049340;28;7005;-80
2022/07/26 12:50:19;;;;;;;;;;;;;;;30.94;34.15;100574.28;5029143;28;7138;-79
2022/07/26 12:52:46;;;;;;;;;;;;;;;30.80;33.83;100570.31;4988502;28;7057;-80
2022/07/26 12:55:17;;;;;;;;;;;;;;;30.68;33.18;100573.41;5018720;28;7295;-79